Time;durP1;ratioP1;P1;durP2;ratioP2;P2;SDS_P1;SDS_P2;PMS_P1;PMS_P2;Temp;Humidity;BMP_temperature;BMP_pressure;BME280_temperature;BME280_humidity;BME280_pressure;Samples;Min_cycle;Max_cycle;Signal;HPM_P1;HPM_P2
2023/01/04 00:01:58;;;;;;;;;;;7.50;99.90;;;;;;5000805;28;19921;-52
2023/01/04 00:04:24;;;;;;;;;;;7.50;99.90;;;;;;5011808;28;19921;-51
2023/01/04 00:06:49;;;;;;;;;;;7.50;99.90;;;;;;5006216;28;19971;-52
2023/01/04 00:09:15;;;;;;;;;;;7.50;99.90;;;;;;5016509;28;19944;-55
2023/01/04 00:11:40;;;;;;;;;;;7.50;99.90;;;;;;5011395;28;20402;-55
2023/01/04 00:14:06;;;;;;;;;;;7.50;99.90;;;;;;4993348;28;19940;-54
2023/01/04 00:16:31;;;;;;;;;;;7.50;99.90;;;;;;4994314;28;20380;-55
2023/01/04 00:18:57;;;;;;;;;;;7.50;99.90;;;;;;4994502;28;19952;-56
2023/01/04 00:21:24;;;;;;;;;;;7.50;99.90;;;;;;4994117;28;19929;-52
2023/01/04 00:23:51;;;;;;;;;;;7.60;99.90;;;;;;4990053;28;21234;-56
2023/01/04 00:26:19;;;;;;;;;;;7.60;99.90;;;;;;4985404;28;19932;-54
2023/01/04 00:28:44;;;;;;;;;;;7.60;99.90;;;;;;4989669;28;19984;-54
2023/01/04 00:31:11;;;;;;;;;;;7.60;99.90;;;;;;4986301;28;19925;-55
2023/01/04 00:33:37;;;;;;;;;;;7.60;99.90;;;;;;4989335;28;19932;-55
2023/01/04 00:36:07;;;;;;;;;;;7.60;99.90;;;;;;4986332;28;19922;-55
2023/01/04 00:38:33;;;;;;;;;;;7.60;99.90;;;;;;4978858;28;19925;-56
2023/01/04 00:40:59;;;;;;;;;;;7.60;99.90;;;;;;4990383;28;20269;-55
2023/01/04 00:43:25;;;;;;;;;;;7.60;99.90;;;;;;4998044;28;20023;-55
2023/01/04 00:45:50;;;;;;;;;;;7.60;99.90;;;;;;4988611;28;20463;-54
2023/01/04 00:48:16;;;;;;;;;;;7.60;99.90;;;;;;4991274;28;19932;-56
2023/01/04 00:50:45;;;;;;;;;;;7.60;99.90;;;;;;4988347;28;20334;-55
2023/01/04 00:53:11;;;;;;;;;;;7.60;99.90;;;;;;4992924;28;19925;-54
2023/01/04 00:55:36;;;;;;;;;;;7.60;99.90;;;;;;4990878;28;19930;-54
2023/01/04 00:58:02;;;;;;;;;;;7.60;99.90;;;;;;4991030;28;19929;-55
2023/01/04 01:00:27;;;;;;;;;;;7.50;99.90;;;;;;5002155;28;20307;-53
2023/01/04 01:02:53;;;;;;;;;;;7.50;99.90;;;;;;5015653;28;19995;-54
2023/01/04 01:05:18;;;;;;;;;;;7.50;99.90;;;;;;5008381;28;19921;-55
2023/01/04 01:07:44;;;;;;;;;;;7.50;99.90;;;;;;4995799;28;20360;-54
2023/01/04 01:10:09;;;;;;;;;;;7.50;99.90;;;;;;4995831;28;20000;-56
2023/01/04 01:12:35;;;;;;;;;;;7.50;99.90;;;;;;4996251;28;19957;-55
2023/01/04 01:15:01;;;;;;;;;;;7.60;99.90;;;;;;4993595;28;19967;-54
2023/01/04 01:17:26;;;;;;;;;;;7.50;99.90;;;;;;4994772;28;19922;-54
2023/01/04 01:19:52;;;;;;;;;;;7.50;99.90;;;;;;4993243;28;20494;-56
2023/01/04 01:22:17;;;;;;;;;;;7.50;99.90;;;;;;4996319;28;19969;-52
2023/01/04 01:24:43;;;;;;;;;;;7.50;99.90;;;;;;4993132;28;19926;-56
2023/01/04 01:27:08;;;;;;;;;;;7.50;99.90;;;;;;4993810;28;20318;-56
2023/01/04 01:29:34;;;;;;;;;;;7.50;99.90;;;;;;4994898;28;20017;-55
2023/01/04 01:31:59;;;;;;;;;;;7.50;99.90;;;;;;4992805;28;19929;-56
2023/01/04 01:34:25;;;;;;;;;;;7.50;99.90;;;;;;4991574;28;19925;-56
2023/01/04 01:36:50;;;;;;;;;;;7.60;99.90;;;;;;4987449;28;19937;-56
2023/01/04 01:39:16;;;;;;;;;;;7.50;99.90;;;;;;4987629;28;19921;-56
2023/01/04 01:41:41;;;;;;;;;;;7.50;99.90;;;;;;4995564;28;21303;-56
2023/01/04 01:44:25;;;;;;;;;;;7.50;99.90;;;;;;4992440;28;19988;-56
2023/01/04 01:46:52;;;;;;;;;;;7.60;99.90;;;;;;4986066;28;20395;-55
2023/01/04 01:49:27;;;;;;;;;;;7.60;99.90;;;;;;4988476;28;19931;-56
2023/01/04 01:51:54;;;;;;;;;;;7.60;99.90;;;;;;4987900;28;19965;-56
2023/01/04 01:54:31;;;;;;;;;;;7.70;99.90;;;;;;4985366;28;20432;-54
2023/01/04 01:56:58;;;;;;;;;;;7.70;99.90;;;;;;4970038;28;19964;-53
2023/01/04 01:59:24;;;;;;;;;;;7.80;99.90;;;;;;4993849;28;19925;-51
2023/01/04 02:01:50;;;;;;;;;;;7.80;99.90;;;;;;4992550;28;19922;-56
2023/01/04 02:04:16;;;;;;;;;;;7.70;99.90;;;;;;4997598;28;20411;-56
2023/01/04 02:06:44;;;;;;;;;;;7.70;99.90;;;;;;5002342;28;19921;-54
2023/01/04 02:09:11;;;;;;;;;;;7.80;99.90;;;;;;5006074;28;20295;-55
2023/01/04 02:11:36;;;;;;;;;;;7.80;99.90;;;;;;5011450;28;20252;-52
2023/01/04 02:16:49;;;;;;;;;;;7.90;99.90;;;;;;4995288;28;20067;-55
2023/01/04 02:19:33;;;;;;;;;;;7.80;99.90;;;;;;4990461;28;19933;-54
2023/01/04 02:22:02;;;;;;;;;;;7.80;99.90;;;;;;4990955;28;19921;-56
2023/01/04 02:24:27;;;;;;;;;;;7.90;99.90;;;;;;4992497;28;20390;-55
2023/01/04 02:27:16;;;;;;;;;;;7.90;99.90;;;;;;4987557;28;20005;-53
2023/01/04 02:29:48;;;;;;;;;;;7.90;99.90;;;;;;4990872;28;19952;-54
2023/01/04 02:32:25;;;;;;;;;;;7.90;99.90;;;;;;4983559;28;20027;-52
2023/01/04 02:34:56;;;;;;;;;;;8.00;99.90;;;;;;4983038;28;19922;-51
2023/01/04 02:37:22;;;;;;;;;;;8.00;99.90;;;;;;4987599;28;19921;-52
2023/01/04 02:39:47;;;;;;;;;;;8.00;99.90;;;;;;4991099;28;19926;-56
2023/01/04 02:42:24;;;;;;;;;;;8.00;99.90;;;;;;4985225;28;20332;-54
2023/01/04 02:44:56;;;;;;;;;;;8.00;99.90;;;;;;4987305;28;19952;-55
2023/01/04 02:50:31;;;;;;;;;;;8.10;99.90;;;;;;4989535;28;19929;-56
2023/01/04 02:53:00;;;;;;;;;;;8.10;99.90;;;;;;4984442;28;19981;-54
2023/01/04 02:55:29;;;;;;;;;;;8.10;99.90;;;;;;4983964;28;20088;-54
2023/01/04 02:58:00;;;;;;;;;;;8.10;99.90;;;;;;4983641;28;20018;-55
2023/01/04 03:00:26;;;;;;;;;;;8.20;99.90;;;;;;4989716;28;19968;-57
2023/01/04 03:06:14;;;;;;;;;;;8.20;99.90;;;;;;4988042;28;19926;-57
2023/01/04 03:08:46;;;;;;;;;;;8.30;99.90;;;;;;4993285;28;19922;-57
2023/01/04 03:13:59;;;;;;;;;;;8.30;99.90;;;;;;4989723;28;20006;-57
2023/01/04 03:16:25;;;;;;;;;;;8.30;99.90;;;;;;4987150;28;19925;-56
2023/01/04 03:18:52;;;;;;;;;;;8.40;99.90;;;;;;4984657;28;20008;-55
2023/01/04 03:21:19;;;;;;;;;;;8.40;99.90;;;;;;4982566;28;19929;-55
2023/01/04 03:37:38;;;;;;;;;;;;;;;;;;4988906;28;20348;-55
2023/01/04 03:48:26;;;;;;;;;;;8.80;99.90;;;;;;4973704;28;20104;-57
2023/01/04 03:51:18;;;;;;;;;;;8.70;99.90;;;;;;4990440;28;19921;-55
2023/01/04 03:53:50;;;;;;;;;;;8.80;99.90;;;;;;4988344;28;19937;-56
2023/01/04 03:56:16;;;;;;;;;;;8.80;99.90;;;;;;4996066;28;20002;-56
2023/01/04 03:58:42;;;;;;;;;;;8.80;99.90;;;;;;4992315;28;20626;-55
2023/01/04 04:01:08;;;;;;;;;;;8.80;99.90;;;;;;4992754;28;19975;-57
2023/01/04 04:09:02;;;;;;;;;;;8.90;99.90;;;;;;4991319;28;20055;-53
2023/01/04 04:11:30;;;;;;;;;;;8.90;99.90;;;;;;4997341;28;20005;-56
2023/01/04 04:13:57;;;;;;;;;;;8.90;99.90;;;;;;4998176;28;20490;-57
2023/01/04 04:16:23;;;;;;;;;;;9.00;99.90;;;;;;4980794;28;20554;-56
2023/01/04 04:18:48;;;;;;;;;;;9.00;99.90;;;;;;4993682;28;19934;-58
2023/01/04 04:21:14;;;;;;;;;;;9.00;99.90;;;;;;4992190;28;19926;-57
2023/01/04 04:23:39;;;;;;;;;;;9.10;99.90;;;;;;4995910;28;20506;-57
2023/01/04 04:26:05;;;;;;;;;;;9.00;99.90;;;;;;4991011;28;19972;-57
2023/01/04 04:28:30;;;;;;;;;;;9.00;99.90;;;;;;4996822;28;19930;-58
2023/01/04 04:30:56;;;;;;;;;;;9.10;99.90;;;;;;5000668;28;19921;-56
2023/01/04 04:33:21;;;;;;;;;;;9.10;99.90;;;;;;4991201;28;19984;-57
2023/01/04 04:35:51;;;;;;;;;;;9.10;99.90;;;;;;4990004;28;20307;-57
2023/01/04 04:38:16;;;;;;;;;;;9.10;99.90;;;;;;4991356;28;20024;-56
2023/01/04 04:43:26;;;;;;;;;;;9.20;99.90;;;;;;4994363;28;19930;-58
2023/01/04 04:45:51;;;;;;;;;;;9.20;99.90;;;;;;4994168;28;19943;-57
2023/01/04 04:48:17;;;;;;;;;;;9.20;99.90;;;;;;4992660;28;19929;-57
2023/01/04 04:50:42;;;;;;;;;;;9.20;99.90;;;;;;4993184;28;20350;-56
2023/01/04 04:53:08;;;;;;;;;;;9.20;99.90;;;;;;4992831;28;19929;-56
2023/01/04 04:55:33;;;;;;;;;;;9.30;99.90;;;;;;4993478;28;19936;-54
2023/01/04 04:57:59;;;;;;;;;;;9.30;99.90;;;;;;4994204;28;19980;-57
2023/01/04 05:00:24;;;;;;;;;;;9.30;99.90;;;;;;4992506;28;20408;-58
2023/01/04 05:02:50;;;;;;;;;;;9.30;99.90;;;;;;4990127;28;19945;-56
2023/01/04 05:05:15;;;;;;;;;;;9.40;99.90;;;;;;4980598;28;19957;-56
2023/01/04 05:07:41;;;;;;;;;;;9.40;99.90;;;;;;4995427;28;20332;-57
2023/01/04 05:10:06;;;;;;;;;;;9.40;99.90;;;;;;5000041;28;19971;-57
2023/01/04 05:15:16;;;;;;;;;;;9.40;99.90;;;;;;4987267;28;19991;-56
2023/01/04 05:17:42;;;;;;;;;;;9.50;99.90;;;;;;4986452;28;20262;-55
2023/01/04 05:20:07;;;;;;;;;;;9.50;99.90;;;;;;4989379;28;20317;-54
2023/01/04 05:22:33;;;;;;;;;;;9.50;99.90;;;;;;4987719;28;19945;-55
2023/01/04 05:24:58;;;;;;;;;;;9.50;99.90;;;;;;4995510;28;19922;-56
2023/01/04 05:27:24;;;;;;;;;;;9.50;99.90;;;;;;4997147;28;20362;-55
2023/01/04 05:32:33;;;;;;;;;;;9.60;99.90;;;;;;4985738;28;19922;-56
2023/01/04 05:34:59;;;;;;;;;;;9.60;99.90;;;;;;4997202;28;19929;-57
2023/01/04 05:37:24;;;;;;;;;;;9.60;99.90;;;;;;4996080;28;20477;-56
2023/01/04 05:39:50;;;;;;;;;;;9.70;99.90;;;;;;4996271;28;19929;-57
2023/01/04 05:42:24;;;;;;;;;;;9.70;99.90;;;;;;4996366;28;20016;-56
2023/01/04 05:44:53;;;;;;;;;;;9.70;99.90;;;;;;4998474;28;19965;-57
2023/01/04 05:47:19;;;;;;;;;;;9.80;99.90;;;;;;4996097;28;19968;-55
2023/01/04 05:49:45;;;;;;;;;;;9.80;99.90;;;;;;4983029;28;19929;-57
2023/01/04 05:52:10;;;;;;;;;;;9.80;99.90;;;;;;4993576;28;19925;-57
2023/01/04 05:54:36;;;;;;;;;;;9.80;99.90;;;;;;4986260;28;19933;-56
2023/01/04 05:57:01;;;;;;;;;;;9.80;99.90;;;;;;4985580;28;19939;-56
2023/01/04 05:59:27;;;;;;;;;;;9.90;99.90;;;;;;4990311;28;19922;-56
2023/01/04 06:01:52;;;;;;;;;;;9.90;99.90;;;;;;4990758;28;20029;-53
2023/01/04 06:04:19;;;;;;;;;;;9.80;99.90;;;;;;4985296;28;19981;-55
2023/01/04 06:06:44;;;;;;;;;;;9.90;99.90;;;;;;4993847;28;19930;-53
2023/01/04 06:09:10;;;;;;;;;;;9.90;99.90;;;;;;4996787;28;19928;-56
2023/01/04 06:11:35;;;;;;;;;;;9.90;99.90;;;;;;4996383;28;20085;-55
2023/01/04 06:14:01;;;;;;;;;;;10.00;99.90;;;;;;4997805;28;20380;-55
2023/01/04 06:16:26;;;;;;;;;;;10.00;99.90;;;;;;4978523;28;19921;-56
2023/01/04 06:18:55;;;;;;;;;;;10.00;99.90;;;;;;4998481;28;19930;-56
2023/01/04 06:21:20;;;;;;;;;;;10.00;99.90;;;;;;4970324;28;19929;-54
2023/01/04 06:23:46;;;;;;;;;;;10.00;99.90;;;;;;4986117;28;20023;-56
2023/01/04 06:26:11;;;;;;;;;;;10.00;99.90;;;;;;4986730;28;19928;-54
2023/01/04 06:28:37;;;;;;;;;;;10.00;99.90;;;;;;4993976;28;19965;-56
2023/01/04 06:31:06;;;;;;;;;;;10.10;99.90;;;;;;4986226;28;20666;-54
2023/01/04 06:33:32;;;;;;;;;;;10.10;99.90;;;;;;4985626;28;19933;-56
2023/01/04 06:35:58;;;;;;;;;;;10.10;99.90;;;;;;4983816;28;19980;-56
2023/01/04 06:38:24;;;;;;;;;;;10.10;99.90;;;;;;4987000;28;19926;-58
2023/01/04 06:40:49;;;;;;;;;;;10.00;99.90;;;;;;4987562;28;19930;-57
2023/01/04 06:43:15;;;;;;;;;;;10.10;99.90;;;;;;4987108;28;20733;-56
2023/01/04 06:45:40;;;;;;;;;;;10.00;99.90;;;;;;4989556;28;19929;-56
2023/01/04 06:48:06;;;;;;;;;;;10.10;99.90;;;;;;4985778;28;19929;-57
2023/01/04 06:50:32;;;;;;;;;;;10.10;99.90;;;;;;4983862;28;20467;-57
2023/01/04 06:52:57;;;;;;;;;;;10.00;99.90;;;;;;4989497;28;19929;-57
2023/01/04 06:55:23;;;;;;;;;;;10.10;99.90;;;;;;4987492;28;19921;-57
2023/01/04 06:57:48;;;;;;;;;;;10.10;99.90;;;;;;4969342;28;20007;-56
2023/01/04 07:00:14;;;;;;;;;;;10.10;99.90;;;;;;4989700;28;20070;-58
2023/01/04 07:02:39;;;;;;;;;;;10.10;99.90;;;;;;4984022;28;20316;-57
2023/01/04 07:05:05;;;;;;;;;;;10.10;99.90;;;;;;4992394;28;19928;-58
2023/01/04 07:07:31;;;;;;;;;;;10.10;99.90;;;;;;4995378;28;19929;-56
2023/01/04 07:09:57;;;;;;;;;;;10.10;99.90;;;;;;4993957;28;19941;-57
2023/01/04 07:12:22;;;;;;;;;;;10.10;99.90;;;;;;4994553;28;19922;-57
2023/01/04 07:14:48;;;;;;;;;;;10.20;99.90;;;;;;4987073;28;19921;-55
2023/01/04 07:17:13;;;;;;;;;;;10.20;99.90;;;;;;4986408;28;19921;-57
2023/01/04 07:19:39;;;;;;;;;;;10.20;99.90;;;;;;4986554;28;19922;-56
2023/01/04 07:22:04;;;;;;;;;;;10.20;99.90;;;;;;4988011;28;20118;-57
2023/01/04 07:24:30;;;;;;;;;;;10.20;99.90;;;;;;4978582;28;19929;-57
2023/01/04 07:26:55;;;;;;;;;;;10.20;99.90;;;;;;4994889;28;19929;-52
2023/01/04 07:29:21;;;;;;;;;;;10.20;99.90;;;;;;4987948;28;19928;-56
2023/01/04 07:31:47;;;;;;;;;;;10.30;99.90;;;;;;4992679;28;20049;-58
2023/01/04 07:34:13;;;;;;;;;;;10.20;99.90;;;;;;4993248;28;19953;-55
2023/01/04 07:36:39;;;;;;;;;;;10.20;99.90;;;;;;4994588;28;19921;-56
2023/01/04 07:39:05;;;;;;;;;;;10.20;99.90;;;;;;4995059;28;19935;-56
2023/01/04 07:41:31;;;;;;;;;;;10.20;99.90;;;;;;4992533;28;20328;-57
2023/01/04 07:43:56;;;;;;;;;;;10.20;99.90;;;;;;4999025;28;19976;-56
2023/01/04 07:46:22;;;;;;;;;;;10.30;99.90;;;;;;4996282;28;20538;-53
2023/01/04 07:48:47;;;;;;;;;;;10.20;99.90;;;;;;4994142;28;19932;-57
2023/01/04 07:51:13;;;;;;;;;;;10.30;99.90;;;;;;4994058;28;19929;-57
2023/01/04 07:53:38;;;;;;;;;;;10.30;99.90;;;;;;4986187;28;19925;-57
2023/01/04 07:56:04;;;;;;;;;;;10.30;99.90;;;;;;4967013;28;19922;-57
2023/01/04 07:58:30;;;;;;;;;;;10.30;99.90;;;;;;4972958;28;19922;-57
2023/01/04 08:00:56;;;;;;;;;;;10.30;99.90;;;;;;4987447;28;19929;-58
2023/01/04 08:03:22;;;;;;;;;;;10.30;99.90;;;;;;4988092;28;19937;-57
2023/01/04 08:05:47;;;;;;;;;;;10.30;99.90;;;;;;4987693;28;19950;-58
2023/01/04 08:08:13;;;;;;;;;;;10.40;99.90;;;;;;4988519;28;19930;-57
2023/01/04 08:10:38;;;;;;;;;;;10.30;99.90;;;;;;4989053;28;19931;-58
2023/01/04 08:13:04;;;;;;;;;;;10.40;99.90;;;;;;4975412;28;19929;-57
2023/01/04 08:15:29;;;;;;;;;;;10.40;99.90;;;;;;4990539;28;20379;-56
2023/01/04 08:17:55;;;;;;;;;;;10.40;99.90;;;;;;4988880;28;19929;-58
2023/01/04 08:20:21;;;;;;;;;;;10.40;99.90;;;;;;4988957;28;19996;-57
2023/01/04 08:22:46;;;;;;;;;;;10.40;99.90;;;;;;4990930;28;19922;-56
2023/01/04 08:25:12;;;;;;;;;;;10.50;99.90;;;;;;4989141;28;20055;-56
2023/01/04 08:27:37;;;;;;;;;;;10.50;99.90;;;;;;4992227;28;20020;-55
2023/01/04 08:30:03;;;;;;;;;;;10.50;99.90;;;;;;4982377;28;19930;-57
2023/01/04 08:32:29;;;;;;;;;;;10.50;99.90;;;;;;4991585;28;19929;-57
2023/01/04 08:34:55;;;;;;;;;;;10.50;99.90;;;;;;4971779;28;19932;-58
2023/01/04 08:37:20;;;;;;;;;;;10.60;99.90;;;;;;4988377;28;19928;-58
2023/01/04 08:39:46;;;;;;;;;;;10.60;99.90;;;;;;4994099;28;19991;-56
2023/01/04 08:42:11;;;;;;;;;;;10.70;99.90;;;;;;4994990;28;19941;-55
2023/01/04 08:44:37;;;;;;;;;;;10.70;99.90;;;;;;4995018;28;20572;-56
2023/01/04 08:47:02;;;;;;;;;;;10.70;99.90;;;;;;4988963;28;20025;-57
2023/01/04 08:49:28;;;;;;;;;;;10.60;99.90;;;;;;4993699;28;20362;-56
2023/01/04 08:51:53;;;;;;;;;;;10.70;99.90;;;;;;4991007;28;19992;-58
2023/01/04 08:54:19;;;;;;;;;;;10.70;99.90;;;;;;4998571;28;20292;-57
2023/01/04 08:56:44;;;;;;;;;;;10.70;99.90;;;;;;4995198;28;19929;-56
2023/01/04 08:59:11;;;;;;;;;;;10.70;99.90;;;;;;4992906;28;19935;-54
2023/01/04 09:01:38;;;;;;;;;;;10.70;99.90;;;;;;4982021;28;19921;-56
2023/01/04 09:04:03;;;;;;;;;;;10.70;99.90;;;;;;4990829;28;20422;-56
2023/01/04 09:06:29;;;;;;;;;;;;;;;;;;5000853;28;19922;-56
2023/01/04 09:08:56;;;;;;;;;;;10.60;99.90;;;;;;4976610;28;20380;-57
2023/01/04 09:11:22;;;;;;;;;;;10.70;99.90;;;;;;4980064;28;19980;-55
2023/01/04 09:13:48;;;;;;;;;;;10.80;99.90;;;;;;4995950;28;19933;-56
2023/01/04 09:16:15;;;;;;;;;;;10.70;99.90;;;;;;4996110;28;19987;-53
2023/01/04 09:18:40;;;;;;;;;;;10.80;99.90;;;;;;4974219;28;19925;-56
2023/01/04 09:21:06;;;;;;;;;;;10.80;99.90;;;;;;4990369;28;19936;-54
2023/01/04 09:23:33;;;;;;;;;;;10.80;99.90;;;;;;4994787;28;20012;-56
2023/01/04 09:25:58;;;;;;;;;;;10.80;99.90;;;;;;4992467;28;19925;-56
2023/01/04 09:28:25;;;;;;;;;;;10.80;99.90;;;;;;4995345;28;19922;-56
2023/01/04 09:30:50;;;;;;;;;;;10.80;99.90;;;;;;5000783;28;20028;-55
2023/01/04 09:33:16;;;;;;;;;;;10.80;99.90;;;;;;4998640;28;20088;-57
2023/01/04 09:35:41;;;;;;;;;;;10.90;99.90;;;;;;4996770;28;19949;-57
2023/01/04 09:38:07;;;;;;;;;;;10.90;99.90;;;;;;4990768;28;20392;-56
2023/01/04 09:40:38;;;;;;;;;;;10.90;99.90;;;;;;4998408;28;20033;-56
2023/01/04 09:43:03;;;;;;;;;;;10.90;99.90;;;;;;5003730;28;20338;-56
2023/01/04 09:45:29;;;;;;;;;;;10.90;99.90;;;;;;4988980;28;20025;-57
2023/01/04 09:47:55;;;;;;;;;;;10.90;99.90;;;;;;4992063;28;19921;-56
2023/01/04 09:50:27;;;;;;;;;;;10.90;99.90;;;;;;4999304;28;19953;-57
2023/01/04 09:52:56;;;;;;;;;;;10.90;99.90;;;;;;4993882;28;19946;-56
2023/01/04 09:55:24;;;;;;;;;;;11.00;99.90;;;;;;4992436;28;19929;-56
2023/01/04 09:57:55;;;;;;;;;;;11.00;99.90;;;;;;4992917;28;20109;-57
2023/01/04 10:00:33;;;;;;;;;;;11.00;99.90;;;;;;4996406;28;19917;-56
2023/01/04 10:03:04;;;;;;;;;;;11.00;99.90;;;;;;4994881;28;20379;-53
2023/01/04 10:05:31;;;;;;;;;;;11.00;99.90;;;;;;4993959;28;19983;-53
2023/01/04 10:07:57;;;;;;;;;;;11.00;99.90;;;;;;4993542;28;20024;-57
2023/01/04 10:10:32;;;;;;;;;;;11.10;99.90;;;;;;4993798;28;20012;-57
2023/01/04 10:13:08;;;;;;;;;;;11.10;99.90;;;;;;4997446;28;19965;-55
2023/01/04 10:15:38;;;;;;;;;;;11.10;99.90;;;;;;4991227;28;20467;-57
2023/01/04 10:18:16;;;;;;;;;;;11.10;99.90;;;;;;4995466;28;20012;-57
2023/01/04 10:20:54;;;;;;;;;;;11.10;99.90;;;;;;4990818;28;19967;-57
2023/01/04 10:23:19;;;;;;;;;;;11.10;99.90;;;;;;4997375;28;20324;-56
2023/01/04 10:25:45;;;;;;;;;;;11.10;99.90;;;;;;4998035;28;19971;-56
2023/01/04 10:28:19;;;;;;;;;;;11.20;99.90;;;;;;4978143;28;19926;-56
2023/01/04 10:30:45;;;;;;;;;;;11.20;99.90;;;;;;4995179;28;20373;-56
2023/01/04 10:33:17;;;;;;;;;;;11.20;99.90;;;;;;4995651;28;19921;-57
2023/01/04 10:35:44;;;;;;;;;;;11.20;99.90;;;;;;4991938;28;19925;-57
2023/01/04 10:38:30;;;;;;;;;;;11.10;99.90;;;;;;4995234;28;19922;-55
2023/01/04 10:40:58;;;;;;;;;;;11.10;99.90;;;;;;4994405;28;20017;-54
2023/01/04 10:43:37;;;;;;;;;;;11.20;99.90;;;;;;4981151;28;19922;-56
2023/01/04 10:46:25;;;;;;;;;;;11.20;99.90;;;;;;4996702;28;20218;-57
2023/01/04 10:48:57;;;;;;;;;;;11.20;99.90;;;;;;4993669;28;19968;-57
2023/01/04 10:51:32;;;;;;;;;;;11.20;99.90;;;;;;4993300;28;19932;-56
2023/01/04 10:54:21;;;;;;;;;;;11.20;99.90;;;;;;4994655;28;19944;-56
2023/01/04 10:56:59;;;;;;;;;;;11.20;99.90;;;;;;4982147;28;19929;-55
2023/01/04 10:59:28;;;;;;;;;;;11.30;99.90;;;;;;4997073;28;19925;-57
2023/01/04 11:02:00;;;;;;;;;;;11.30;99.90;;;;;;4980822;28;20041;-56
2023/01/04 11:07:01;;;;;;;5.80;0.98;;;12.10;99.90;;;;;;5112022;27;20759;-56
2023/01/04 11:09:34;;;;;;;1.00;0.90;;;11.30;99.90;;;;;;5094476;28;20044;-56
2023/01/04 11:12:01;;;;;;;1.13;0.80;;;11.40;99.90;;;;;;5097267;28;20043;-57
2023/01/04 11:14:27;;;;;;;1.58;0.80;;;11.30;99.90;;;;;;5095000;28;20129;-54
2023/01/04 11:17:00;;;;;;;1.33;0.90;;;11.40;99.90;;;;;;5098422;28;20044;-56
2023/01/04 11:19:27;;;;;;;3.85;1.08;;;11.40;99.90;;;;;;5093805;28;20074;-55
2023/01/04 11:22:04;;;;;;;4.40;0.90;;;11.40;99.90;;;;;;5094495;28;20044;-56
2023/01/04 11:24:31;;;;;;;0.88;0.88;;;11.40;99.90;;;;;;5077427;28;20079;-56
2023/01/04 11:27:03;;;;;;;5.55;1.20;;;11.40;99.90;;;;;;5076418;28;20040;-56
2023/01/04 11:29:41;;;;;;;3.85;1.60;;;11.40;99.90;;;;;;5089978;28;20085;-57
2023/01/04 11:32:38;;;;;;;2.00;1.45;;;11.40;99.90;;;;;;5090040;28;20040;-56
2023/01/04 11:35:04;;;;;;;;;;;11.40;99.90;;;;;;5090664;28;20437;-56
2023/01/04 11:37:33;;;;;;;4.22;2.17;;;11.40;99.90;;;;;;5069060;28;19947;-54
2023/01/04 11:40:17;;;;;;;4.05;2.25;;;11.50;99.90;;;;;;5089402;28;20048;-57
2023/01/04 11:43:10;;;;;;;5.18;2.60;;;11.60;99.90;;;;;;5087931;28;20052;-57
2023/01/04 11:45:36;;;;;;;7.13;2.45;;;11.60;99.90;;;;;;5087957;28;20035;-57
2023/01/04 11:48:05;;;;;;;4.95;2.58;;;11.60;99.90;;;;;;5069115;28;20063;-55
2023/01/04 11:50:46;;;;;;;2.90;2.22;;;11.60;99.90;;;;;;5091469;28;20040;-57
2023/01/04 11:53:32;;;;;;;2.58;2.33;;;11.60;99.90;;;;;;5075619;28;20096;-57
2023/01/04 11:56:21;;;;;;;3.42;1.83;;;11.60;99.90;;;;;;5088971;28;20142;-57
2023/01/04 11:59:13;;;;;;;2.92;2.10;;;11.60;99.90;;;;;;5072433;28;20062;-56
2023/01/04 12:01:45;;;;;;;2.70;1.90;;;11.60;99.90;;;;;;5088869;28;20123;-54
2023/01/04 12:04:27;;;;;;;3.03;1.58;;;11.60;99.90;;;;;;5094513;28;20040;-55
2023/01/04 12:06:58;;;;;;;2.30;1.98;;;11.60;99.90;;;;;;5084713;28;20542;-56
2023/01/04 12:09:24;;;;;;;2.38;1.90;;;11.60;99.90;;;;;;5090305;28;20490;-57
2023/01/04 12:11:56;;;;;;;3.10;2.17;;;11.70;99.90;;;;;;5090120;28;20036;-57
2023/01/04 12:14:46;;;;;;;2.00;1.85;;;11.70;99.90;;;;;;5091394;28;20127;-56
2023/01/04 12:17:28;;;;;;;3.88;1.77;;;11.70;99.90;;;;;;5080695;28;20040;-57
2023/01/04 12:19:56;;;;;;;2.50;1.60;;;11.70;99.90;;;;;;5072008;28;20055;-57
2023/01/04 12:22:36;;;;;;;3.90;1.70;;;11.70;99.90;;;;;;5073546;28;20056;-59
2023/01/04 12:25:04;;;;;;;2.00;1.70;;;11.70;99.90;;;;;;5077190;28;20426;-51
2023/01/04 12:27:30;;;;;;;2.88;1.52;;;11.70;99.90;;;;;;5076931;28;20047;-52
2023/01/04 12:30:06;;;;;;;1.63;1.52;;;11.70;99.90;;;;;;5068670;28;20040;-50
2023/01/04 12:32:32;;;;;;;1.63;1.50;;;11.70;99.90;;;;;;5075929;28;20036;-49
2023/01/04 12:34:58;;;;;;;2.05;1.60;;;11.70;99.90;;;;;;5084313;28;20097;-50
2023/01/04 12:37:44;;;;;;;2.70;1.90;;;11.60;99.90;;;;;;5081107;28;20064;-49
2023/01/04 12:40:45;;;;;;;2.97;1.77;;;11.70;99.90;;;;;;5075518;28;20448;-50
2023/01/04 12:43:14;;;;;;;3.30;1.90;;;11.60;99.90;;;;;;5080491;28;20123;-49
2023/01/04 12:45:40;;;;;;;1.73;1.63;;;11.60;99.90;;;;;;5077625;28;20044;-50
2023/01/04 12:51:25;;;;;;;1.70;1.60;;;11.60;99.90;;;;;;5072594;28;20103;-51
2023/01/04 12:54:03;;;;;;;1.73;1.60;;;11.60;99.90;;;;;;5073233;28;20047;-49
2023/01/04 12:57:07;;;;;;;2.67;1.63;;;11.70;99.90;;;;;;5076421;28;20158;-48
2023/01/04 12:59:55;;;;;;;3.83;1.80;;;11.70;99.90;;;;;;5076527;28;20067;-50
2023/01/04 13:02:33;;;;;;;3.08;1.85;;;11.70;99.90;;;;;;5075518;28;20044;-51
2023/01/04 13:05:20;;;;;;;6.25;1.95;;;11.70;99.90;;;;;;5077337;28;20059;-52
2023/01/04 13:07:47;;;;;;;4.93;1.80;;;11.60;99.90;;;;;;5074530;28;20129;-49
2023/01/04 13:10:24;;;;;;;5.45;1.90;;;11.60;99.90;;;;;;5075491;28;20424;-50
2023/01/04 13:13:17;;;;;;;8.63;2.15;;;11.60;99.90;;;;;;5074051;28;20048;-52
2023/01/04 13:16:07;;;;;;;8.02;2.28;;;11.70;99.90;;;;;;5073777;28;20067;-49
2023/01/04 13:18:36;;;;;;;7.90;2.17;;;11.70;99.90;;;;;;5073381;28;20044;-49
2023/01/04 13:21:13;;;;;;;9.82;2.25;;;11.70;99.90;;;;;;5074034;28;20048;-48
2023/01/04 13:23:44;;;;;;;11.32;2.22;;;11.70;99.90;;;;;;5055834;28;20530;-50
2023/01/04 13:26:37;;;;;;;8.95;2.75;;;11.70;99.90;;;;;;5079259;28;20036;-49
2023/01/04 13:29:15;;;;;;;10.90;2.15;;;11.70;99.90;;;;;;5073310;28;20036;-50
2023/01/04 13:31:59;;;;;;;14.15;2.67;;;11.70;99.90;;;;;;5072592;28;20048;-52
2023/01/04 13:34:25;;;;;;;11.15;3.20;;;11.70;99.90;;;;;;5078807;28;20120;-51
2023/01/04 13:37:12;;;;;;;9.70;2.60;;;11.80;99.90;;;;;;5055826;28;20535;-49
2023/01/04 13:39:41;;;;;;;10.98;2.80;;;11.80;99.90;;;;;;5060533;28;20044;-49
2023/01/04 13:42:13;;;;;;;12.70;2.58;;;11.80;99.90;;;;;;5074169;28;20040;-48
2023/01/04 13:45:06;;;;;;;12.25;2.78;;;11.80;99.90;;;;;;5073451;28;20052;-50
2023/01/04 13:47:36;;;;;;;11.48;3.03;;;11.80;99.90;;;;;;5077381;28;20036;-49
2023/01/04 13:50:03;;;;;;;15.55;2.90;;;11.80;99.90;;;;;;5076423;28;20040;-49
2023/01/04 13:52:29;;;;;;;11.40;2.88;;;11.80;99.90;;;;;;5073529;28;20080;-49
2023/01/04 13:55:22;;;;;;;16.23;2.90;;;11.80;99.90;;;;;;5072728;28;20071;-50
2023/01/04 13:58:01;;;;;;;13.25;3.20;;;11.80;99.90;;;;;;5072644;28;20418;-51
2023/01/04 14:00:50;;;;;;;15.70;3.00;;;11.90;99.90;;;;;;5073119;28;20548;-50
2023/01/04 14:03:54;;;;;;;12.35;2.75;;;11.80;99.90;;;;;;5072420;28;20413;-49
2023/01/04 14:06:32;;;;;;;14.43;2.83;;;11.80;99.90;;;;;;5051686;28;20080;-49
2023/01/04 14:09:14;;;;;;;15.40;2.90;;;11.80;99.90;;;;;;5073954;28;20044;-49
2023/01/04 14:12:00;;;;;;;13.98;2.88;;;11.80;99.90;;;;;;5091972;28;20055;-52
2023/01/04 14:14:57;;;;;;;18.50;2.97;;;11.80;99.90;;;;;;5090762;28;20056;-50
2023/01/04 14:17:41;;;;;;;17.35;3.05;;;11.80;99.90;;;;;;5081409;28;20058;-49
2023/01/04 14:20:09;;;;;;;12.32;3.08;;;11.80;99.90;;;;;;5082538;28;20059;-51
2023/01/04 14:22:45;;;;;;;16.20;2.88;;;11.80;99.90;;;;;;5093086;28;20070;-53
2023/01/04 14:25:29;;;;;;;15.80;3.17;;;11.80;99.90;;;;;;5092827;28;20513;-48
2023/01/04 14:28:17;;;;;;;12.98;2.65;;;11.90;99.90;;;;;;5088388;28;20040;-51
2023/01/04 14:30:44;;;;;;;14.73;3.50;;;11.80;99.90;;;;;;5088351;28;20051;-51
2023/01/04 14:33:28;;;;;;;15.07;3.13;;;11.80;99.90;;;;;;5090846;28;20115;-50
2023/01/04 14:36:27;;;;;;;14.88;3.35;;;11.80;99.90;;;;;;5072903;28;20108;-50
2023/01/04 14:39:11;;;;;;;16.65;3.10;;;11.80;99.90;;;;;;5039791;28;20061;-48
2023/01/04 14:41:39;;;;;;;16.02;2.92;;;11.80;99.90;;;;;;5090673;28;20044;-49
2023/01/04 14:44:24;;;;;;;11.75;2.72;;;11.80;99.90;;;;;;5085523;28;20051;-52
2023/01/04 14:46:52;;;;;;;16.02;3.35;;;11.80;99.90;;;;;;5068616;28;20044;-52
2023/01/04 14:49:20;;;;;;;15.98;3.17;;;11.80;99.90;;;;;;5087916;28;20041;-50
2023/01/04 14:51:46;;;;;;;;;;;11.80;99.90;;;;;;5063350;28;20124;-49
2023/01/04 14:54:13;;;;;;;15.32;3.15;;;11.70;99.90;;;;;;5092721;28;19924;-50
2023/01/04 14:56:39;;;;;;;14.57;2.95;;;11.70;99.90;;;;;;5092854;28;20051;-50
2023/01/04 14:59:05;;;;;;;15.13;3.13;;;11.70;99.90;;;;;;5071346;28;20129;-48
2023/01/04 15:01:31;;;;;;;13.35;2.72;;;11.70;99.90;;;;;;5072231;28;20119;-50
2023/01/04 15:03:58;;;;;;;14.95;2.80;;;11.70;99.90;;;;;;5082607;28;20505;-50
2023/01/04 15:06:23;;;;;;;16.58;3.42;;;11.70;99.90;;;;;;5092190;28;20062;-49